• Join FlightAware (Why Join?)
  • Login
  • US Flag 
11:27PM EDT


 

Airport Tracker/Info


-or-


 

Live Flight TrackerFlight Track Log ✈ FLG4216 ✈ 02-May-2013 ✈ KCVG - KDTW

Flight Track Log - Related Links

Times and Time Zones

All times are in EDT time to prevent confusion due to time zone crossing. See the FLG4216 flight status page for this flight to view local times or setup timezone preferences in your user account.

Time Position Orientation Groundspeed Altitude Reporting Facility
EDT Latitude Longitude Course Direction KTS MPH feet Rate Location/Type
05:59PM 39.0500 -84.6833 347° North 160 184 1,500  Level Cincinnati TRACON
05:59PM 39.0667 -84.7333 293° West 204 235 2,300 1,560 Climbing Cincinnati TRACON
06:00PM 39.0833 -84.8333 282° West 286 329 4,500 2,280 Climbing Cincinnati TRACON
06:02PM 39.0853 -84.4020 322° Northwest  Level FlightAware Approximate
06:02PM 39.1933 -84.8428 356° North 291 335 8,200  Level Indianapolis Center
06:03PM 39.1720 -84.4382 347° North  Level FlightAware Approximate
06:03PM 39.2689 -84.7961 26° Northeast 298 343 10,900  Level Indianapolis Center
06:04PM 39.2620 -84.4653 347° North  Level FlightAware Approximate
06:04PM 39.3533 -84.7408 27° Northeast 335 386 12,400  Level Indianapolis Center
06:05PM 39.4436 -84.6786 28° Northeast 359 413 13,900 1,740 Climbing Indianapolis Center
06:06PM 39.5542 -84.6036 28° Northeast 377 434 16,000 1,740 Climbing Indianapolis Center
06:07PM 39.6564 -84.5544 20° North 386 444 17,600 1,440 Climbing Indianapolis Center
06:08PM 39.7625 -84.5083 18° North 394 453 19,000 1,080 Climbing Indianapolis Center
06:09PM 39.8692 -84.4608 19° North 398 458 19,900 720 Climbing Indianapolis Center
06:10PM 39.9822 -84.4111 19° North 416 479 20,500 480 Climbing Indianapolis Center
06:11PM 40.1053 -84.3994 North 434 499 21,000 240 Climbing Indianapolis Center
06:12PM 40.2306 -84.4031 359° North 440 506 21,000 -120 Level Indianapolis Center
06:13PM 40.3525 -84.4050 359° North 436 502 20,800 -960 Descending Indianapolis Center
06:14PM 40.4875 -84.4078 359° North 418 481 19,000 -900 Descending Indianapolis Center
06:15PM 40.6000 -84.4122 358° North 403 464 19,000  Level Indianapolis Center
06:16PM 40.7128 -84.4150 359° North 401 461 19,000  Level Indianapolis Center
06:17PM 40.8253 -84.4181 359° North 402 463 19,000  Level Indianapolis Center
06:18PM 40.9389 -84.4225 358° North 403 464 19,000  Level Indianapolis Center
06:19PM 40.9844 -84.4233 359° North 398 458 19,000  Level Cleveland Center
06:20PM 41.0969 -84.4272 359° North 403 464 19,000 -420 Level Cleveland Center
06:21PM 41.2072 -84.4281 360° North 403 464 18,200 -1,080 Descending Cleveland Center
06:22PM 41.3158 -84.4292 360° North 397 457 16,900 -1,440 Descending Cleveland Center
06:23PM 41.4219 -84.4325 359° North 387 445 15,400 -1,500 Descending Cleveland Center
06:24PM 41.5131 -84.3881 20° North 355 409 13,900 -1,500 Descending Cleveland Center
06:25PM 41.5803 -84.3142 39° Northeast 320 368 12,400 -1,020 Descending Cleveland Center
06:26PM 41.6450 -84.2431 39° Northeast 311 358 12,000 -240 Descending Cleveland Center
06:27PM 41.7036 -84.1739 41° Northeast 312 359 12,000  Level Cleveland Center
06:28PM 41.7747 -84.0944 40° Northeast 303 349 12,000  Level Cleveland Center
06:29PM 41.8353 -84.0281 39° Northeast 298 343 12,000  Level Cleveland Center
06:30PM 41.8939 -83.9447 47° Northeast 288 331 12,000  Level Cleveland Center
06:31PM 41.9489 -83.8469 53° Northeast 306 352 12,000  Level Cleveland Center
06:32PM 41.9947 -83.7711 51° Northeast 290 334 12,000  Level Cleveland Center
06:33PM 42.0386 -83.6978 51° Northeast 246 283 12,000  Level Cleveland Center
06:34PM 42.1003 -83.6475 31° Northeast 263 303 12,000  Level Cleveland Center
06:35PM 42.1664 -83.5975 29° Northeast 253 291 12,000 -60 Level Cleveland Center
06:36PM 42.2300 -83.5531 27° Northeast 232 267 11,900 -720 Descending Cleveland Center
06:37PM 42.2875 -83.5081 30° Northeast 238 274 10,500 -1,620 Descending Cleveland Center
06:38PM 42.3489 -83.4658 27° Northeast 228 262 8,700 -1,620 Descending Cleveland Center
06:39PM 42.4019 -83.4317 25° Northeast 219 252 7,300 -1,620 Descending Cleveland Center
06:40PM 42.4553 -83.3806 35° Northeast 203 234 5,300 -1,500 Descending Cleveland Center
06:41PM 42.4422 -83.3208 106° East 161 185 4,200 -660 Descending Cleveland Center
06:42PM 42.4075 -83.2942 150° Southeast 160 184 4,000 -240 Descending Cleveland Center